Terminal Aerodrome Forecast
Issued by NWS Quad Cities IA IL

Home | Current Version | Previous Version | Text Only | Print | Product List | Glossary On
Versions: 1 2 3 4 5 6 7 8 9 10 11 12 13 14 15 16 17
000
FTUS43 KDVN 302300 RRA
TAFMLI
TAF
KMLI 302341Z 3100/3124 20006KT P6SM SCT150
     FM311300 22006KT P6SM BKN035
     FM311700 21007KT 5SM -RASN BR OVC020=

USA.gov is the U.S. government's official web portal to all federal, state and local government web resources and services.